sensor_id;sensor_type;location;lat;lon;timestamp;temperature;humidity
55008;DHT22;40902;45.116;21.296;2024-03-23T00:55:46;308.00;2048.00
55008;DHT22;40902;45.116;21.296;2024-03-23T00:58:11;308.00;2073.60
55008;DHT22;40902;45.116;21.296;2024-03-23T01:00:37;308.00;2073.60
55008;DHT22;40902;45.116;21.296;2024-03-23T01:03:03;308.00;2073.60
55008;DHT22;40902;45.116;21.296;2024-03-23T01:05:29;308.00;2073.60
55008;DHT22;40902;45.116;21.296;2024-03-23T01:07:55;308.00;2048.00
55008;DHT22;40902;45.116;21.296;2024-03-23T01:10:20;308.00;2073.60
55008;DHT22;40902;45.116;21.296;2024-03-23T01:12:46;308.00;2073.60
55008;DHT22;40902;45.116;21.296;2024-03-23T01:15:12;308.00;2073.60
55008;DHT22;40902;45.116;21.296;2024-03-23T01:17:38;308.00;2073.60
55008;DHT22;40902;45.116;21.296;2024-03-23T01:20:04;308.00;2073.60
55008;DHT22;40902;45.116;21.296;2024-03-23T01:22:32;307.90;2099.20
55008;DHT22;40902;45.116;21.296;2024-03-23T01:24:58;308.00;2073.60
55008;DHT22;40902;45.116;21.296;2024-03-23T01:27:24;307.90;2073.60
55008;DHT22;40902;45.116;21.296;2024-03-23T01:29:50;307.90;2099.20
55008;DHT22;40902;45.116;21.296;2024-03-23T01:32:18;307.80;2099.20
55008;DHT22;40902;45.116;21.296;2024-03-23T01:34:44;307.80;2099.20
55008;DHT22;40902;45.116;21.296;2024-03-23T01:37:10;307.80;2099.20
55008;DHT22;40902;45.116;21.296;2024-03-23T01:39:36;307.80;2124.80
55008;DHT22;40902;45.116;21.296;2024-03-23T01:42:02;307.80;2124.80
55008;DHT22;40902;45.116;21.296;2024-03-23T01:44:28;307.80;2124.80
55008;DHT22;40902;45.116;21.296;2024-03-23T01:46:54;307.80;2124.80
55008;DHT22;40902;45.116;21.296;2024-03-23T01:49:20;307.70;2099.20
55008;DHT22;40902;45.116;21.296;2024-03-23T01:51:46;307.70;2124.80
55008;DHT22;40902;45.116;21.296;2024-03-23T01:54:12;307.70;2099.20
55008;DHT22;40902;45.116;21.296;2024-03-23T01:56:38;307.70;2124.80
55008;DHT22;40902;45.116;21.296;2024-03-23T01:59:05;307.70;2124.80
55008;DHT22;40902;45.116;21.296;2024-03-23T02:01:37;307.70;2124.80
55008;DHT22;40902;45.116;21.296;2024-03-23T02:04:03;307.90;2099.20
55008;DHT22;40902;45.116;21.296;2024-03-23T02:06:29;307.70;2124.80
55008;DHT22;40902;45.116;21.296;2024-03-23T02:08:55;307.70;2124.80
55008;DHT22;40902;45.116;21.296;2024-03-23T02:25:58;308.00;2124.80
55008;DHT22;40902;45.116;21.296;2024-03-23T02:28:24;307.70;2124.80
55008;DHT22;40902;45.116;21.296;2024-03-23T02:30:50;307.60;2124.80
55008;DHT22;40902;45.116;21.296;2024-03-23T03:07:26;308.00;2150.40
55008;DHT22;40902;45.116;21.296;2024-03-23T03:09:52;307.60;2150.40
55008;DHT22;40902;45.116;21.296;2024-03-23T03:12:17;307.60;2150.40
55008;DHT22;40902;45.116;21.296;2024-03-23T03:14:46;307.70;2150.40
55008;DHT22;40902;45.116;21.296;2024-03-23T03:19:38;308.00;2150.40
55008;DHT22;40902;45.116;21.296;2024-03-23T03:22:04;307.70;2150.40
55008;DHT22;40902;45.116;21.296;2024-03-23T03:24:30;307.60;2150.40
55008;DHT22;40902;45.116;21.296;2024-03-23T03:26:56;307.60;2150.40
55008;DHT22;40902;45.116;21.296;2024-03-23T03:29:23;307.60;2150.40
55008;DHT22;40902;45.116;21.296;2024-03-23T03:31:50;307.60;2150.40
55008;DHT22;40902;45.116;21.296;2024-03-23T03:34:16;307.60;2150.40
55008;DHT22;40902;45.116;21.296;2024-03-23T03:36:41;307.60;2150.40
55008;DHT22;40902;45.116;21.296;2024-03-23T03:39:07;307.80;2150.40
55008;DHT22;40902;45.116;21.296;2024-03-23T03:41:33;307.80;2150.40
55008;DHT22;40902;45.116;21.296;2024-03-23T05:16:48;308.00;2124.80
55008;DHT22;40902;45.116;21.296;2024-03-23T05:19:14;307.70;2150.40
55008;DHT22;40902;45.116;21.296;2024-03-23T05:21:40;307.70;2150.40
55008;DHT22;40902;45.116;21.296;2024-03-23T05:24:06;307.70;2150.40
55008;DHT22;40902;45.116;21.296;2024-03-23T05:26:32;307.80;2150.40
55008;DHT22;40902;45.116;21.296;2024-03-23T05:28:59;307.80;2150.40
55008;DHT22;40902;45.116;21.296;2024-03-23T05:31:26;307.90;2124.80
55008;DHT22;40902;45.116;21.296;2024-03-23T05:33:52;307.90;2124.80
55008;DHT22;40902;45.116;21.296;2024-03-23T05:36:18;308.00;2124.80
55008;DHT22;40902;45.116;21.296;2024-03-23T05:38:44;308.10;2124.80
55008;DHT22;40902;45.116;21.296;2024-03-23T05:41:10;332.80;2150.40
55008;DHT22;40902;45.116;21.296;2024-03-23T05:43:36;333.00;2124.80
55008;DHT22;40902;45.116;21.296;2024-03-23T06:00:44;359.00;2022.40
55008;DHT22;40902;45.116;21.296;2024-03-23T06:03:10;358.80;2022.40
55008;DHT22;40902;45.116;21.296;2024-03-23T06:10:29;359.30;1971.20
55008;DHT22;40902;45.116;21.296;2024-03-23T06:12:55;359.10;1996.80
55008;DHT22;40902;45.116;21.296;2024-03-23T06:15:21;359.10;1996.80
55008;DHT22;40902;45.116;21.296;2024-03-23T06:17:48;359.10;1971.20
55008;DHT22;40902;45.116;21.296;2024-03-23T06:20:14;359.20;1971.20
55008;DHT22;40902;45.116;21.296;2024-03-23T06:34:52;384.70;1920.00
55008;DHT22;40902;45.116;21.296;2024-03-23T06:37:18;384.50;1945.60
55008;DHT22;40902;45.116;21.296;2024-03-23T06:39:46;384.30;1971.20
55008;DHT22;40902;45.116;21.296;2024-03-23T06:42:12;384.30;1971.20
55008;DHT22;40902;45.116;21.296;2024-03-23T06:44:38;384.40;1945.60
55008;DHT22;40902;45.116;21.296;2024-03-23T06:47:05;384.40;1945.60
55008;DHT22;40902;45.116;21.296;2024-03-23T06:49:31;384.30;1945.60
55008;DHT22;40902;45.116;21.296;2024-03-23T06:51:57;384.20;1945.60
55008;DHT22;40902;45.116;21.296;2024-03-23T06:54:24;384.40;1945.60
55008;DHT22;40902;45.116;21.296;2024-03-23T06:56:50;384.30;1945.60
55008;DHT22;40902;45.116;21.296;2024-03-23T06:59:16;384.40;1971.20
55008;DHT22;40902;45.116;21.296;2024-03-23T07:01:41;384.40;1945.60
55008;DHT22;40902;45.116;21.296;2024-03-23T07:04:07;384.50;1971.20
55008;DHT22;40902;45.116;21.296;2024-03-23T07:06:33;384.50;1971.20
55008;DHT22;40902;45.116;21.296;2024-03-23T07:08:59;384.50;1971.20
55008;DHT22;40902;45.116;21.296;2024-03-23T07:11:25;384.60;1971.20
55008;DHT22;40902;45.116;21.296;2024-03-23T07:26:04;410.10;1945.60
55008;DHT22;40902;45.116;21.296;2024-03-23T07:28:31;409.80;1945.60
55008;DHT22;40902;45.116;21.296;2024-03-23T07:31:08;409.80;1945.60
55008;DHT22;40902;45.116;21.296;2024-03-23T07:33:42;410.20;1945.60
55008;DHT22;40902;45.116;21.296;2024-03-23T07:36:08;410.00;1945.60
55008;DHT22;40902;45.116;21.296;2024-03-23T07:38:34;410.00;1971.20
55008;DHT22;40902;45.116;21.296;2024-03-23T07:41:10;410.00;1971.20
55008;DHT22;40902;45.116;21.296;2024-03-23T07:43:39;410.10;1971.20
55008;DHT22;40902;45.116;21.296;2024-03-23T07:46:06;410.40;1971.20
55008;DHT22;40902;45.116;21.296;2024-03-23T07:48:32;410.30;1971.20
55008;DHT22;40902;45.116;21.296;2024-03-23T07:51:07;410.20;1971.20
55008;DHT22;40902;45.116;21.296;2024-03-23T07:56:05;435.30;1971.20
55008;DHT22;40902;45.116;21.296;2024-03-23T07:58:31;435.40;1971.20
55008;DHT22;40902;45.116;21.296;2024-03-23T08:13:18;435.90;1971.20
55008;DHT22;40902;45.116;21.296;2024-03-23T08:15:44;435.70;2073.60
55008;DHT22;40902;45.116;21.296;2024-03-23T08:18:13;435.50;1971.20
55008;DHT22;40902;45.116;21.296;2024-03-23T08:20:41;435.60;1971.20
55008;DHT22;40902;45.116;21.296;2024-03-23T08:23:07;435.60;1971.20
55008;DHT22;40902;45.116;21.296;2024-03-23T08:25:34;435.70;1971.20
55008;DHT22;40902;45.116;21.296;2024-03-23T08:28:00;435.90;1945.60
55008;DHT22;40902;45.116;21.296;2024-03-23T08:30:26;435.90;1920.00
55008;DHT22;40902;45.116;21.296;2024-03-23T08:32:52;436.00;1920.00
55008;DHT22;40902;45.116;21.296;2024-03-23T08:35:18;436.10;1868.80
55008;DHT22;40902;45.116;21.296;2024-03-23T08:37:44;460.90;1920.00
55008;DHT22;40902;45.116;21.296;2024-03-23T08:40:10;461.10;1894.40
55008;DHT22;40902;45.116;21.296;2024-03-23T08:42:36;461.10;1894.40
55008;DHT22;40902;45.116;21.296;2024-03-23T08:45:02;461.20;1843.20
55008;DHT22;40902;45.116;21.296;2024-03-23T08:47:28;461.30;1843.20
55008;DHT22;40902;45.116;21.296;2024-03-23T08:49:54;461.30;1843.20
55008;DHT22;40902;45.116;21.296;2024-03-23T08:52:20;461.40;1817.60
55008;DHT22;40902;45.116;21.296;2024-03-23T08:54:48;461.50;1817.60
55008;DHT22;40902;45.116;21.296;2024-03-23T08:57:14;461.60;1817.60
55008;DHT22;40902;45.116;21.296;2024-03-23T08:59:43;461.60;1843.20
55008;DHT22;40902;45.116;21.296;2024-03-23T09:02:09;461.70;1817.60
55008;DHT22;40902;45.116;21.296;2024-03-23T09:04:34;461.70;1817.60
55008;DHT22;40902;45.116;21.296;2024-03-23T09:07:00;486.40;1817.60
55008;DHT22;40902;45.116;21.296;2024-03-23T09:09:26;486.40;1817.60
55008;DHT22;40902;45.116;21.296;2024-03-23T09:11:52;486.40;1817.60
55008;DHT22;40902;45.116;21.296;2024-03-23T09:14:18;486.50;1817.60
55008;DHT22;40902;45.116;21.296;2024-03-23T09:16:44;486.50;1817.60
55008;DHT22;40902;45.116;21.296;2024-03-23T09:19:11;486.50;1792.00
55008;DHT22;40902;45.116;21.296;2024-03-23T09:21:37;486.50;1792.00
55008;DHT22;40902;45.116;21.296;2024-03-23T09:24:03;486.50;1792.00
55008;DHT22;40902;45.116;21.296;2024-03-23T09:26:29;486.50;1817.60
55008;DHT22;40902;45.116;21.296;2024-03-23T09:28:55;486.60;1817.60
55008;DHT22;40902;45.116;21.296;2024-03-23T09:31:21;486.60;1817.60
55008;DHT22;40902;45.116;21.296;2024-03-23T09:33:47;486.60;1792.00
55008;DHT22;40902;45.116;21.296;2024-03-23T09:36:13;486.70;1792.00
55008;DHT22;40902;45.116;21.296;2024-03-23T09:38:40;486.70;1817.60
55008;DHT22;40902;45.116;21.296;2024-03-23T09:41:09;486.80;1843.20
55008;DHT22;40902;45.116;21.296;2024-03-23T09:46:02;512.00;1843.20
55008;DHT22;40902;45.116;21.296;2024-03-23T09:48:28;487.10;1792.00
55008;DHT22;40902;45.116;21.296;2024-03-23T09:50:54;512.00;1792.00
55008;DHT22;40902;45.116;21.296;2024-03-23T09:53:20;487.10;1817.60
55008;DHT22;40902;45.116;21.296;2024-03-23T09:55:47;487.10;1817.60
55008;DHT22;40902;45.116;21.296;2024-03-23T09:58:18;487.10;1817.60
55008;DHT22;40902;45.116;21.296;2024-03-23T10:00:44;487.30;1817.60
55008;DHT22;40902;45.116;21.296;2024-03-23T10:03:10;487.10;1843.20
55008;DHT22;40902;45.116;21.296;2024-03-23T10:05:37;487.20;1894.40
55008;DHT22;40902;45.116;21.296;2024-03-23T10:10:41;487.10;1766.40
55008;DHT22;40902;45.116;21.296;2024-03-23T10:13:07;487.20;1792.00
55008;DHT22;40902;45.116;21.296;2024-03-23T10:15:35;487.20;1766.40
55008;DHT22;40902;45.116;21.296;2024-03-23T10:18:19;487.20;1766.40
55008;DHT22;40902;45.116;21.296;2024-03-23T10:20:51;487.30;1766.40
55008;DHT22;40902;45.116;21.296;2024-03-23T10:23:17;487.30;1766.40
55008;DHT22;40902;45.116;21.296;2024-03-23T10:25:43;512.00;1740.80
55008;DHT22;40902;45.116;21.296;2024-03-23T10:30:37;512.40;1766.40
55008;DHT22;40902;45.116;21.296;2024-03-23T10:33:12;512.40;1715.20
55008;DHT22;40902;45.116;21.296;2024-03-23T10:35:39;512.10;1715.20
55008;DHT22;40902;45.116;21.296;2024-03-23T10:38:06;512.20;1715.20
55008;DHT22;40902;45.116;21.296;2024-03-23T10:40:34;512.30;1740.80
55008;DHT22;40902;45.116;21.296;2024-03-23T10:43:01;512.40;1843.20
55008;DHT22;40902;45.116;21.296;2024-03-23T10:45:28;512.30;1689.60
55008;DHT22;40902;45.116;21.296;2024-03-23T10:47:54;512.40;1715.20
55008;DHT22;40902;45.116;21.296;2024-03-23T10:50:19;512.50;1689.60
55008;DHT22;40902;45.116;21.296;2024-03-23T10:52:49;512.50;1689.60
55008;DHT22;40902;45.116;21.296;2024-03-23T10:58:01;512.70;1689.60
55008;DHT22;40902;45.116;21.296;2024-03-23T11:00:27;512.70;1715.20
55008;DHT22;40902;45.116;21.296;2024-03-23T21:32:17;461.70;1689.60
55008;DHT22;40902;45.116;21.296;2024-03-23T21:34:44;461.50;1689.60
55008;DHT22;40902;45.116;21.296;2024-03-23T21:37:10;461.50;1689.60
55008;DHT22;40902;45.116;21.296;2024-03-23T21:39:35;461.50;1715.20
55008;DHT22;40902;45.116;21.296;2024-03-23T21:42:01;461.50;1715.20
55008;DHT22;40902;45.116;21.296;2024-03-23T21:44:27;461.50;1715.20
55008;DHT22;40902;45.116;21.296;2024-03-23T21:46:53;461.50;1715.20
55008;DHT22;40902;45.116;21.296;2024-03-23T21:49:19;461.50;1740.80
55008;DHT22;40902;45.116;21.296;2024-03-23T21:51:44;461.50;1766.40
55008;DHT22;40902;45.116;21.296;2024-03-23T21:54:10;461.50;1766.40
55008;DHT22;40902;45.116;21.296;2024-03-23T21:56:36;461.40;1766.40
55008;DHT22;40902;45.116;21.296;2024-03-23T21:59:02;461.40;1766.40
55008;DHT22;40902;45.116;21.296;2024-03-23T22:01:29;461.30;1766.40
55008;DHT22;40902;45.116;21.296;2024-03-23T22:03:55;461.30;1766.40
55008;DHT22;40902;45.116;21.296;2024-03-23T22:06:20;461.30;1766.40
55008;DHT22;40902;45.116;21.296;2024-03-23T22:08:46;461.20;1766.40
55008;DHT22;40902;45.116;21.296;2024-03-23T22:11:13;461.20;1766.40
55008;DHT22;40902;45.116;21.296;2024-03-23T22:13:39;461.10;1766.40
55008;DHT22;40902;45.116;21.296;2024-03-23T22:16:05;461.10;1766.40
55008;DHT22;40902;45.116;21.296;2024-03-23T22:18:33;461.20;1766.40
55008;DHT22;40902;45.116;21.296;2024-03-23T22:21:00;461.10;1766.40
55008;DHT22;40902;45.116;21.296;2024-03-23T22:23:27;461.10;1766.40
55008;DHT22;40902;45.116;21.296;2024-03-23T22:25:53;461.00;1766.40
55008;DHT22;40902;45.116;21.296;2024-03-23T22:28:19;461.00;1740.80
55008;DHT22;40902;45.116;21.296;2024-03-23T22:30:54;461.00;1740.80
55008;DHT22;40902;45.116;21.296;2024-03-23T22:33:20;461.00;1740.80
55008;DHT22;40902;45.116;21.296;2024-03-23T22:35:46;461.00;1766.40
55008;DHT22;40902;45.116;21.296;2024-03-23T22:38:12;461.00;1740.80
55008;DHT22;40902;45.116;21.296;2024-03-23T22:40:38;461.00;1766.40
55008;DHT22;40902;45.116;21.296;2024-03-23T22:43:04;461.00;1740.80
55008;DHT22;40902;45.116;21.296;2024-03-23T22:45:30;461.00;1766.40
55008;DHT22;40902;45.116;21.296;2024-03-23T22:47:56;461.00;1766.40
55008;DHT22;40902;45.116;21.296;2024-03-23T22:50:22;461.00;1766.40
55008;DHT22;40902;45.116;21.296;2024-03-23T22:52:48;461.00;1766.40
55008;DHT22;40902;45.116;21.296;2024-03-23T22:55:14;461.00;1766.40
55008;DHT22;40902;45.116;21.296;2024-03-23T22:57:40;461.00;1740.80
55008;DHT22;40902;45.116;21.296;2024-03-23T23:00:06;461.00;1766.40
55008;DHT22;40902;45.116;21.296;2024-03-23T23:02:36;461.00;1740.80
55008;DHT22;40902;45.116;21.296;2024-03-23T23:05:02;461.00;1766.40
55008;DHT22;40902;45.116;21.296;2024-03-23T23:07:28;461.00;1766.40
55008;DHT22;40902;45.116;21.296;2024-03-23T23:09:54;461.00;1792.00
55008;DHT22;40902;45.116;21.296;2024-03-23T23:12:20;460.90;1792.00
55008;DHT22;40902;45.116;21.296;2024-03-23T23:14:45;460.90;1792.00
55008;DHT22;40902;45.116;21.296;2024-03-23T23:17:11;460.90;1817.60
55008;DHT22;40902;45.116;21.296;2024-03-23T23:19:37;460.80;1817.60
55008;DHT22;40902;45.116;21.296;2024-03-23T23:22:03;436.10;1792.00
55008;DHT22;40902;45.116;21.296;2024-03-23T23:24:30;436.00;1817.60
55008;DHT22;40902;45.116;21.296;2024-03-23T23:26:56;436.00;1817.60
55008;DHT22;40902;45.116;21.296;2024-03-23T23:29:22;435.90;1817.60
55008;DHT22;40902;45.116;21.296;2024-03-23T23:31:48;435.90;1817.60
55008;DHT22;40902;45.116;21.296;2024-03-23T23:34:15;435.80;1817.60
55008;DHT22;40902;45.116;21.296;2024-03-23T23:36:41;435.70;1843.20
55008;DHT22;40902;45.116;21.296;2024-03-23T23:39:07;435.70;1843.20
55008;DHT22;40902;45.116;21.296;2024-03-23T23:41:33;435.60;1868.80
55008;DHT22;40902;45.116;21.296;2024-03-23T23:43:59;435.40;1894.40
55008;DHT22;40902;45.116;21.296;2024-03-23T23:46:25;435.20;1945.60
55008;DHT22;40902;45.116;21.296;2024-03-23T23:48:51;410.50;1971.20
55008;DHT22;40902;45.116;21.296;2024-03-23T23:51:17;410.40;2048.00
55008;DHT22;40902;45.116;21.296;2024-03-23T23:53:43;410.10;2099.20
55008;DHT22;40902;45.116;21.296;2024-03-23T23:56:10;409.70;2150.40
55008;DHT22;40902;45.116;21.296;2024-03-23T23:58:36;384.80;2150.40
